Time;durP1;ratioP1;P1;durP2;ratioP2;P2;SDS_P1;SDS_P2;PMS_P1;PMS_P2;Temp;Humidity;BMP_temperature;BMP_pressure;BME280_temperature;BME280_humidity;BME280_pressure;Samples;Min_cycle;Max_cycle;Signal;HPM_P1;HPM_P2
2021/09/30 00:01:06;;;;;;;12.10;3.25;;;;;;;9.71;75.95;102140.50;5108127;28;20040;-65
2021/09/30 00:03:33;;;;;;;9.18;2.97;;;;;;;9.66;76.01;102145.31;5098111;28;20060;-63
2021/09/30 00:06:00;;;;;;;10.13;3.08;;;;;;;9.71;76.69;102142.31;5096649;28;20090;-63
2021/09/30 00:08:27;;;;;;;11.80;2.78;;;;;;;9.59;76.53;102138.78;5102609;28;20075;-63
2021/09/30 00:11:08;;;;;;;10.52;2.72;;;;;;;9.56;76.83;102154.88;5109485;28;20048;-64
2021/09/30 00:13:41;;;;;;;10.88;3.15;;;;;;;9.52;76.97;102154.28;5109444;28;20051;-65
2021/09/30 00:35:24;;;;;;;7.70;2.95;;;;;;;9.58;76.28;102182.13;5093642;28;20040;-65
2021/09/30 00:46:21;;;;;;;13.73;3.30;;;;;;;9.58;75.92;102185.59;5095019;28;20062;-66
2021/09/30 00:48:59;;;;;;;10.95;3.38;;;;;;;9.56;76.08;102187.53;5093638;28;20464;-65
2021/09/30 00:52:08;;;;;;;11.80;3.25;;;;;;;9.60;75.57;102198.75;5093835;28;20130;-65
2021/09/30 00:54:36;;;;;;;10.05;3.45;;;;;;;9.59;75.74;102199.72;5080288;28;20485;-65
2021/09/30 01:31:24;;;;;;;8.82;3.10;;;;;;;9.30;77.93;102223.84;5106031;28;20066;-63
2021/09/30 02:21:37;;;;;;;16.67;3.40;;;;;;;9.10;77.63;102230.56;5108257;28;20044;-65
2021/09/30 02:40:08;;;;;;;13.40;3.20;;;;;;;9.17;77.78;102231.81;5110495;28;20054;-65
2021/09/30 02:59:42;;;;;;;15.43;3.60;;;;;;;9.12;76.99;102246.34;5094861;28;20115;-66
2021/09/30 03:02:11;;;;;;;11.13;3.22;;;;;;;9.12;76.49;102246.34;5109080;28;20036;-65
2021/09/30 03:04:44;;;;;;;11.07;3.30;;;;;;;9.10;76.83;102248.25;5107750;28;20050;-66
2021/09/30 03:07:16;;;;;;;11.60;3.35;;;;;;;9.01;77.19;102249.72;5100390;28;20044;-65
2021/09/30 03:09:47;;;;;;;11.38;3.22;;;;;;;9.06;76.80;102255.56;5104192;28;20127;-66
2021/09/30 03:12:27;;;;;;;14.53;3.63;;;;;;;9.12;76.71;102259.56;5109817;28;20044;-65
2021/09/30 03:15:40;;;;;;;11.38;3.38;;;;;;;9.01;77.46;102262.97;5109367;28;20317;-65
2021/09/30 03:17:52;;;;;;;13.32;3.28;;;;;;;9.06;76.73;102258.22;5108943;28;20046;-66
2021/09/30 03:20:34;;;;;;;12.30;3.22;;;;;;;9.04;76.95;102260.13;5109648;28;20557;-66
2021/09/30 03:23:11;;;;;;;15.43;3.15;;;;;;;9.09;76.37;102259.78;5108571;28;20047;-65
2021/09/30 03:25:39;;;;;;;9.73;2.97;;;;;;;9.00;76.66;102256.84;5099738;28;20461;-65
2021/09/30 03:28:06;;;;;;;13.07;3.45;;;;;;;8.94;77.33;102259.88;5109330;28;20058;-66
2021/09/30 03:30:35;;;;;;;14.63;3.42;;;;;;;8.88;77.76;102262.09;5106964;28;20508;-66
2021/09/30 03:33:06;;;;;;;17.33;3.40;;;;;;;8.92;77.39;102264.44;5109153;28;20043;-65
2021/09/30 03:35:37;;;;;;;10.40;2.70;;;;;;;9.05;76.11;102266.25;5109034;28;20035;-65
2021/09/30 03:38:06;;;;;;;14.00;3.40;;;;;;;8.96;76.69;102273.88;5109428;28;20050;-65
2021/09/30 03:40:35;;;;;;;15.90;3.30;;;;;;;9.05;76.14;102271.53;5108824;28;20089;-65
2021/09/30 03:43:03;;;;;;;12.80;3.17;;;;;;;8.89;77.40;102275.25;5095009;28;20499;-65
2021/09/30 03:45:35;;;;;;;13.45;3.10;;;;;;;8.99;75.76;102278.13;5095612;28;20542;-65
2021/09/30 03:48:11;;;;;;;12.80;3.17;;;;;;;8.99;76.55;102280.75;5095118;28;20044;-65
2021/09/30 03:54:11;;;;;;;12.15;3.08;;;;;;;8.87;76.81;102273.66;5096551;28;20467;-65
2021/09/30 03:59:25;;;;;;;13.68;3.55;;;;;;;8.75;77.44;102278.84;5130397;27;20727;-66
2021/09/30 04:01:41;;;;;;;14.05;3.05;;;;;;;8.84;76.52;102275.56;5130777;28;20065;-65
2021/09/30 04:04:09;;;;;;;8.73;3.10;;;;;;;8.95;76.82;102279.25;5128938;27;20096;-65
2021/09/30 04:06:36;;;;;;;11.82;3.42;;;;;;;8.92;75.99;102285.63;5131160;28;20202;-66
2021/09/30 04:09:02;;;;;;;12.85;3.22;;;;;;;8.93;75.44;102282.03;5131149;28;20039;-65
2021/09/30 04:11:29;;;;;;;14.70;3.28;;;;;;;8.78;76.73;102286.56;5131240;28;20104;-66
2021/09/30 04:13:56;;;;;;;14.35;3.30;;;;;;;8.89;76.79;102292.94;5129874;28;20043;-66
2021/09/30 04:16:26;;;;;;;9.73;3.10;;;;;;;8.90;76.04;102282.25;5130846;28;20044;-65
2021/09/30 04:18:53;;;;;;;19.10;3.28;;;;;;;8.99;76.05;102286.06;5128763;27;20043;-66
2021/09/30 04:21:20;;;;;;;14.70;3.03;;;;;;;8.98;75.35;102293.13;5119442;28;20420;-66
2021/09/30 04:23:46;;;;;;;14.57;3.08;;;;;;;8.87;76.07;102282.44;5123727;28;20042;-66
2021/09/30 04:26:13;;;;;;;18.58;3.28;;;;;;;8.84;76.74;102291.44;5129947;27;20046;-66
2021/09/30 04:28:40;;;;;;;17.92;3.17;;;;;;;8.83;77.29;102289.75;5130059;27;20032;-66
2021/09/30 04:31:07;;;;;;;12.52;3.10;;;;;;;8.83;76.33;102300.31;5128098;27;20077;-66
2021/09/30 04:33:43;;;;;;;13.52;3.30;;;;;;;8.87;76.52;102303.59;5113284;28;20047;-65
2021/09/30 04:36:10;;;;;;;13.70;3.40;;;;;;;8.90;76.41;102307.88;5130396;27;20044;-66
2021/09/30 04:38:37;;;;;;;11.15;3.03;;;;;;;8.91;76.53;102309.53;5129894;27;20047;-66
2021/09/30 04:41:04;;;;;;;12.65;3.38;;;;;;;8.80;76.59;102307.63;5126938;27;20039;-65
2021/09/30 04:43:32;;;;;;;12.90;2.83;;;;;;;8.83;75.70;102304.78;5130431;27;20046;-65
2021/09/30 04:45:59;;;;;;;14.27;3.08;;;;;;;8.86;76.05;102311.66;5130227;27;20045;-65
2021/09/30 04:48:27;;;;;;;10.63;2.90;;;;;;;8.94;75.14;102309.34;5129909;27;20039;-66
2021/09/30 04:51:07;;;;;;;18.98;3.58;;;;;;;8.79;76.30;102320.00;5130045;27;20130;-65
2021/09/30 04:53:35;;;;;;;14.80;3.80;;;;;;;8.72;77.17;102317.91;5129913;27;20535;-66
2021/09/30 04:56:03;;;;;;;21.58;3.15;;;;;;;8.68;76.48;102321.66;5129774;27;20563;-65
2021/09/30 04:58:35;;;;;;;20.60;3.42;;;;;;;8.57;78.21;102310.03;5129304;27;20068;-65
2021/09/30 05:01:02;;;;;;;16.33;3.25;;;;;;;8.67;76.49;102307.59;5128792;28;20047;-66
2021/09/30 05:03:31;;;;;;;18.48;3.50;;;;;;;8.70;76.44;102317.16;5127700;27;20556;-65
2021/09/30 05:05:58;;;;;;;14.52;3.58;;;;;;;8.67;76.40;102312.91;5129737;28;20403;-65
2021/09/30 05:08:28;;;;;;;17.60;3.65;;;;;;;8.71;75.79;102313.53;5124998;28;20044;-65
2021/09/30 05:10:55;;;;;;;13.50;3.28;;;;;;;8.69;76.20;102326.03;5113901;28;20075;-65
2021/09/30 05:13:28;;;;;;;17.30;3.55;;;;;;;8.61;77.58;102315.97;5116161;28;20553;-65
2021/09/30 05:15:55;;;;;;;19.60;3.33;;;;;;;8.59;77.33;102329.28;5116024;28;20082;-66
2021/09/30 05:18:47;;;;;;;19.63;3.72;;;;;;;8.59;77.78;102323.16;5115055;28;20062;-66
2021/09/30 05:21:15;;;;;;;17.75;3.50;;;;;;;8.73;76.33;102325.75;5114305;28;20040;-66
2021/09/30 05:23:42;;;;;;;20.20;3.75;;;;;;;8.69;76.70;102331.31;5113935;28;20044;-66
2021/09/30 05:26:09;;;;;;;19.65;3.67;;;;;;;8.51;77.47;102322.81;5115853;28;20109;-66
2021/09/30 05:28:36;;;;;;;13.30;3.28;;;;;;;8.55;77.24;102324.28;5113939;28;20043;-65
2021/09/30 05:31:03;;;;;;;15.65;3.40;;;;;;;8.55;77.20;102326.94;5115469;28;20130;-66
2021/09/30 05:33:50;;;;;;;13.93;3.53;;;;;;;8.51;76.97;102330.75;5113059;28;20411;-66
2021/09/30 05:36:18;;;;;;;18.58;3.95;;;;;;;8.44;77.95;102327.66;5115413;28;20094;-66
2021/09/30 05:38:45;;;;;;;18.15;3.33;;;;;;;8.57;77.06;102335.66;5114711;28;20023;-66
2021/09/30 05:41:12;;;;;;;17.42;3.65;;;;;;;8.54;78.20;102335.84;5108555;28;20147;-65
2021/09/30 05:43:41;;;;;;;19.00;3.70;;;;;;;8.48;78.11;102336.22;5114947;28;20127;-66
2021/09/30 05:46:10;;;;;;;16.33;4.13;;;;;;;8.70;76.76;102346.25;5115139;28;20047;-66
2021/09/30 05:48:37;;;;;;;13.57;3.63;;;;;;;8.65;76.98;102344.75;5114370;28;20575;-66
2021/09/30 05:51:06;;;;;;;14.65;3.72;;;;;;;8.57;77.19;102346.22;5113267;28;20044;-66
2021/09/30 05:53:46;;;;;;;13.77;3.53;;;;;;;8.67;76.57;102349.94;5122439;27;20126;-66
2021/09/30 05:56:32;;;;;;;13.68;3.70;;;;;;;8.62;76.72;102349.38;5115617;27;20462;-66
2021/09/30 05:58:59;;;;;;;18.15;3.83;;;;;;;8.69;76.14;102344.56;5101406;28;20491;-66
2021/09/30 06:10:23;;;;;;;20.05;3.83;;;;;;;8.53;77.17;102357.94;5101243;28;20077;-66
2021/09/30 06:12:37;;;;;;;16.77;3.90;;;;;;;8.54;76.81;102347.25;5114458;27;20039;-66
2021/09/30 06:15:12;;;;;;;18.30;3.63;;;;;;;8.48;76.92;102350.31;5114578;28;20515;-66
2021/09/30 06:17:43;;;;;;;14.85;4.18;;;;;;;8.57;77.09;102344.41;5114461;28;20043;-66
2021/09/30 06:20:12;;;;;;;17.65;3.90;;;;;;;8.65;76.21;102347.38;5113643;28;20039;-66
2021/09/30 06:22:39;;;;;;;15.38;3.80;;;;;;;8.57;76.80;102340.94;5102280;28;20050;-66
2021/09/30 06:25:07;;;;;;;10.52;3.67;;;;;;;8.76;75.91;102344.03;5114731;28;20522;-66
2021/09/30 06:27:35;;;;;;;28.58;4.75;;;;;;;8.70;77.05;102347.09;5114041;28;20031;-66
2021/09/30 06:30:03;;;;;;;12.88;3.08;;;;;;;8.71;76.79;102340.84;5113731;28;20134;-66
2021/09/30 06:32:32;;;;;;;15.88;3.40;;;;;;;8.86;75.88;102346.91;5113072;28;20500;-65
2021/09/30 06:35:19;;;;;;;15.68;4.22;;;;;;;8.81;75.93;102354.31;5114200;28;20518;-66
2021/09/30 06:37:50;;;;;;;13.25;3.08;;;;;;;8.91;75.67;102341.31;5113827;28;20448;-66
2021/09/30 06:40:17;;;;;;;17.20;3.85;;;;;;;8.87;76.07;102353.06;5106144;28;20039;-66
2021/09/30 06:42:45;;;;;;;14.48;3.25;;;;;;;9.00;75.85;102351.25;5114064;28;20047;-66
2021/09/30 06:45:24;;;;;;;16.92;3.85;;;;;;;9.06;75.57;102355.28;5110299;27;20380;-66
2021/09/30 06:48:10;;;;;;;16.00;3.50;;;;;;;9.00;76.10;102356.56;5109911;28;20115;-65
2021/09/30 06:50:50;;;;;;;15.00;3.80;;;;;;;8.96;76.32;102355.91;5110375;28;20075;-66
2021/09/30 06:53:26;;;;;;;14.43;3.72;;;;;;;9.12;75.67;102352.25;5099042;28;20480;-66
2021/09/30 06:56:16;;;;;;;15.98;3.30;;;;;;;9.23;75.36;102355.81;5073761;28;20154;-64
2021/09/30 06:59:54;;;;;;;10.18;3.40;;;;;;;9.49;74.06;102361.13;5143028;27;20421;-64
2021/09/30 07:02:42;;;;;;;13.70;3.30;;;;;;;9.55;73.63;102375.72;5126900;27;20456;-64
2021/09/30 07:05:29;;;;;;;15.30;3.88;;;;;;;9.66;73.49;102369.69;5116774;28;20568;-64
2021/09/30 07:08:09;;;;;;;14.07;3.20;;;;;;;9.69;73.04;102367.66;5110677;28;20041;-64
2021/09/30 07:10:36;;;;;;;11.82;3.55;;;;;;;9.57;74.09;102366.75;5123296;28;20035;-64
2021/09/30 07:13:03;;;;;;;14.43;3.35;;;;;;;9.74;72.41;102362.88;5119478;28;20031;-64
2021/09/30 07:15:30;;;;;;;12.63;2.90;;;;;;;9.83;72.46;102363.19;5122361;28;20073;-64
2021/09/30 07:17:57;;;;;;;15.85;3.58;;;;;;;9.81;72.37;102368.59;5114665;27;20035;-64
2021/09/30 07:20:23;;;;;;;21.80;3.67;;;;;;;9.87;72.23;102376.09;5126146;27;20476;-64
2021/09/30 07:22:50;;;;;;;12.85;3.35;;;;;;;9.73;72.82;102381.53;5122139;27;20042;-64
2021/09/30 07:25:17;;;;;;;12.60;3.80;;;;;;;9.85;73.27;102383.31;5123832;27;20031;-64
2021/09/30 07:27:44;;;;;;;21.02;4.07;;;;;;;10.03;71.41;102377.69;5122959;27;20526;-64
2021/09/30 07:30:11;;;;;;;14.82;3.47;;;;;;;10.11;71.50;102377.94;5112426;27;20054;-64
2021/09/30 07:32:38;;;;;;;22.35;4.00;;;;;;;10.08;72.56;102375.53;5127822;27;20770;-64
2021/09/30 07:35:05;;;;;;;12.68;3.20;;;;;;;10.21;70.73;102372.84;5106987;27;20061;-64
2021/09/30 07:37:31;;;;;;;11.93;3.03;;;;;;;10.34;70.48;102379.81;5120927;27;20039;-64
2021/09/30 07:39:58;;;;;;;14.60;3.38;;;;;;;10.31;71.15;102373.88;5121235;27;20496;-64
2021/09/30 07:42:25;;;;;;;12.38;2.97;;;;;;;10.50;70.26;102381.34;5126931;27;20578;-64
2021/09/30 07:44:52;;;;;;;16.33;3.80;;;;;;;10.50;70.10;102371.56;5127382;27;20039;-64
2021/09/30 07:47:18;;;;;;;19.63;3.20;;;;;;;10.66;69.77;102373.94;5123406;27;20047;-64
2021/09/30 07:49:45;;;;;;;12.50;2.67;;;;;;;10.68;69.67;102371.19;5124249;27;20035;-64
2021/09/30 07:52:12;;;;;;;12.00;3.13;;;;;;;10.79;68.41;102373.88;5137767;27;20065;-64
2021/09/30 07:54:39;;;;;;;14.50;2.88;;;;;;;10.86;68.66;102375.09;5129751;27;20701;-64
2021/09/30 07:57:05;;;;;;;12.63;3.17;;;;;;;11.05;68.24;102363.91;5126966;27;20042;-64
2021/09/30 07:59:32;;;;;;;15.13;4.45;;;;;;;11.17;67.14;102369.22;5124154;27;20046;-64
2021/09/30 08:01:59;;;;;;;14.93;3.13;;;;;;;11.22;67.78;102369.72;5127469;27;20093;-64
2021/09/30 08:04:26;;;;;;;13.20;3.10;;;;;;;11.38;66.73;102367.56;5122590;27;20054;-64
2021/09/30 08:06:52;;;;;;;15.88;2.95;;;;;;;11.51;66.43;102376.31;5119227;27;20048;-64
2021/09/30 08:09:20;;;;;;;11.73;2.72;;;;;;;11.56;65.71;102381.22;5117568;27;20131;-64
2021/09/30 08:11:49;;;;;;;16.50;3.13;;;;;;;11.52;66.71;102382.44;5108369;28;20115;-64
2021/09/30 08:14:15;;;;;;;16.95;3.40;;;;;;;11.69;65.35;102378.44;5109474;28;20047;-64
2021/09/30 08:16:42;;;;;;;21.10;3.15;;;;;;;11.66;66.14;102382.22;5127398;27;20051;-64
2021/09/30 08:19:09;;;;;;;12.85;2.88;;;;;;;11.85;65.48;102378.94;5108627;27;20377;-64
2021/09/30 08:21:43;;;;;;;20.25;3.55;;;;;;;11.94;65.37;102380.03;5113539;27;20050;-64
2021/09/30 08:24:14;;;;;;;12.10;2.88;;;;;;;11.93;65.51;102383.66;5113579;27;20065;-64
2021/09/30 08:26:41;;;;;;;12.68;2.78;;;;;;;12.02;65.43;102380.25;5108696;27;20496;-64
2021/09/30 08:29:07;;;;;;;12.77;3.30;;;;;;;12.34;64.43;102378.63;5092879;28;20046;-64
2021/09/30 08:31:34;;;;;;;15.40;2.90;;;;;;;12.51;62.74;102385.22;5107067;28;20100;-64
2021/09/30 08:34:03;;;;;;;12.60;2.63;;;;;;;12.68;62.07;102392.66;5107509;27;20372;-64
2021/09/30 08:36:31;;;;;;;13.60;2.78;;;;;;;12.73;62.25;102384.28;5115187;27;20038;-64
2021/09/30 08:38:58;;;;;;;13.63;2.63;;;;;;;12.63;62.07;102394.84;5105766;27;20031;-64
2021/09/30 08:41:26;;;;;;;10.95;2.90;;;;;;;12.61;62.49;102394.16;5110450;27;20084;-64
2021/09/30 08:43:52;;;;;;;10.60;2.50;;;;;;;12.70;63.67;102401.38;5101463;27;20554;-64
2021/09/30 08:46:20;;;;;;;19.65;3.80;;;;;;;12.67;64.36;102399.78;5103835;28;20115;-64
2021/09/30 08:48:47;;;;;;;14.13;2.45;;;;;;;12.68;63.95;102398.81;5113044;27;20400;-65
2021/09/30 08:51:15;;;;;;;12.70;2.70;;;;;;;12.73;63.28;102387.78;5104240;27;20042;-64
2021/09/30 08:53:43;;;;;;;14.35;3.03;;;;;;;12.90;62.24;102393.50;5112021;28;20530;-65
2021/09/30 08:56:11;;;;;;;16.30;2.65;;;;;;;12.98;63.67;102391.06;5107721;28;20064;-65
2021/09/30 08:58:38;;;;;;;10.77;2.50;;;;;;;13.17;61.91;102388.53;5109043;28;20520;-65
2021/09/30 09:01:07;;;;;;;19.13;5.07;;;;;;;13.29;60.70;102399.94;5111327;28;20519;-65
2021/09/30 09:03:44;;;;;;;16.77;2.70;;;;;;;13.52;59.75;102394.50;5103677;28;20581;-65
2021/09/30 09:06:28;;;;;;;12.93;2.67;;;;;;;14.26;56.68;102391.50;5102967;27;20042;-65
2021/09/30 09:09:30;;;;;;;11.57;2.65;;;;;;;14.77;54.96;102392.25;5108175;28;20234;-65
2021/09/30 09:12:04;;;;;;;12.55;2.50;;;;;;;15.48;53.90;102386.50;5099173;28;20039;-65
2021/09/30 09:14:35;;;;;;;17.15;3.53;;;;;;;15.69;52.07;102378.22;5102077;27;20378;-65
2021/09/30 09:17:12;;;;;;;18.13;3.35;;;;;;;16.48;51.10;102387.50;5100100;27;20047;-65
2021/09/30 09:19:42;;;;;;;15.73;2.50;;;;;;;16.92;49.71;102385.88;5107622;27;20047;-65
2021/09/30 09:22:16;;;;;;;13.02;2.35;;;;;;;17.49;47.03;102399.66;5111301;27;20059;-67
2021/09/30 09:25:05;;;;;;;10.88;2.60;;;;;;;18.66;45.50;102402.53;5100341;27;20070;-65
2021/09/30 09:27:53;;;;;;;15.70;2.45;;;;;;;19.21;43.44;102393.81;5109183;27;20420;-65
2021/09/30 09:30:39;;;;;;;14.10;2.70;;;;;;;19.76;42.45;102392.16;5112344;27;20044;-65
2021/09/30 09:33:09;;;;;;;15.75;2.53;;;;;;;20.61;40.84;102391.31;5098836;27;20046;-65
2021/09/30 09:36:04;;;;;;;15.82;2.70;;;;;;;20.44;39.60;102387.03;5104799;28;20050;-65
2021/09/30 09:38:49;;;;;;;13.38;2.70;;;;;;;21.38;38.12;102387.53;5104135;27;20115;-66
2021/09/30 09:41:35;;;;;;;11.40;2.30;;;;;;;21.27;38.54;102380.75;5113301;27;20043;-65
2021/09/30 09:44:04;;;;;;;12.25;2.47;;;;;;;21.42;37.65;102380.75;5104604;28;20044;-65
2021/09/30 09:46:35;;;;;;;11.70;2.28;;;;;;;21.77;35.40;102374.78;5092967;28;20089;-65
2021/09/30 09:49:05;;;;;;;12.85;2.63;;;;;;;22.40;35.23;102370.53;5105764;27;20177;-65
2021/09/30 09:51:36;;;;;;;11.38;2.67;;;;;;;22.30;35.31;102374.56;5099506;28;20409;-65
2021/09/30 09:54:15;;;;;;;12.95;2.50;;;;;;;22.09;35.00;102373.50;5111091;28;20044;-64
2021/09/30 09:56:42;;;;;;;19.65;2.65;;;;;;;22.50;34.63;102370.19;5109631;28;20071;-64
2021/09/30 09:59:10;;;;;;;12.50;2.90;;;;;;;22.39;35.20;102371.56;5112414;28;20484;-64
2021/09/30 10:01:41;;;;;;;11.93;2.40;;;;;;;21.24;35.34;102364.09;5105431;27;20496;-64
2021/09/30 10:04:10;;;;;;;18.65;2.92;;;;;;;19.82;37.31;102367.19;5110126;28;20108;-64
2021/09/30 10:06:38;;;;;;;13.90;2.17;;;;;;;19.52;38.03;102368.84;5109738;28;20136;-64
2021/09/30 10:09:08;;;;;;;9.40;1.83;;;;;;;20.23;36.86;102366.13;5111605;28;20039;-65
2021/09/30 10:11:35;;;;;;;15.10;2.30;;;;;;;20.77;35.91;102365.22;5112440;28;20059;-64
2021/09/30 10:14:05;;;;;;;15.55;2.85;;;;;;;20.58;36.48;102367.38;5101924;28;20143;-64
2021/09/30 10:16:33;;;;;;;21.60;2.60;;;;;;;21.58;36.10;102354.63;5100747;28;20040;-64
2021/09/30 10:19:03;;;;;;;18.73;2.38;;;;;;;21.62;35.12;102364.84;5104510;28;20119;-64
2021/09/30 10:21:32;;;;;;;11.93;2.47;;;;;;;20.61;37.66;102367.06;5109105;27;20043;-64
2021/09/30 10:24:04;;;;;;;16.58;2.55;;;;;;;20.21;37.74;102357.38;5099478;28;20412;-63
2021/09/30 10:26:40;;;;;;;12.48;3.20;;;;;;;19.33;37.11;102354.75;5101026;28;20134;-66
2021/09/30 10:29:07;;;;;;;17.52;2.35;;;;;;;20.06;35.49;102343.84;5100679;28;20043;-64
2021/09/30 10:31:36;;;;;;;10.77;2.30;;;;;;;18.86;38.13;102343.94;5101846;27;20100;-63
2021/09/30 10:34:08;;;;;;;10.45;2.08;;;;;;;18.51;40.21;102359.38;5103781;27;20117;-63
2021/09/30 10:39:22;;;;;;;15.80;2.70;;;;;;;19.24;38.25;102349.56;5137063;27;20763;-64
2021/09/30 10:41:52;;;;;;;10.50;2.10;;;;;;;18.36;39.96;102359.19;5116069;27;20040;-64
2021/09/30 10:44:22;;;;;;;15.68;2.50;;;;;;;18.53;40.20;102362.72;5108537;28;20040;-64
2021/09/30 10:46:52;;;;;;;16.70;2.88;;;;;;;18.93;39.68;102358.38;5108213;28;20514;-64
2021/09/30 10:49:40;;;;;;;13.77;2.50;;;;;;;19.12;39.11;102341.03;5107886;28;20046;-64
2021/09/30 10:52:29;;;;;;;14.00;2.42;;;;;;;18.69;40.57;102356.53;5106758;28;20138;-64
2021/09/30 10:55:18;;;;;;;15.70;2.53;;;;;;;18.15;42.14;102349.75;5110117;28;20143;-64
2021/09/30 10:57:47;;;;;;;15.98;2.00;;;;;;;18.17;40.54;102345.06;5102848;28;20036;-64
2021/09/30 11:05:42;;;;;;;13.98;2.17;;;;;;;17.68;40.44;102342.19;5082987;27;20397;-63
2021/09/30 11:08:23;;;;;;;10.40;2.30;;;;;;;17.43;40.76;102336.75;5074960;28;20049;-63
2021/09/30 11:13:49;;;;;;;10.95;2.08;;;;;;;18.44;39.63;102334.19;5124665;27;20143;-66
2021/09/30 11:16:20;;;;;;;13.85;2.65;;;;;;;19.01;39.13;102323.41;5091769;28;20115;-64
2021/09/30 11:21:40;;;;;;;9.55;1.77;;;;;;;19.34;36.71;102315.25;5069535;28;20497;-64
2021/09/30 11:26:53;;;;;;;8.48;2.30;;;;;;;19.12;37.95;102306.06;5137875;27;20124;-63
2021/09/30 11:34:40;;;;;;;15.93;2.20;;;;;;;18.97;38.19;102316.69;5109767;27;20391;-64
2021/09/30 11:37:17;;;;;;;9.95;1.95;;;;;;;19.43;37.84;102319.59;5098652;28;20070;-64
2021/09/30 11:39:49;;;;;;;17.17;2.00;;;;;;;19.24;36.53;102306.53;5095878;28;20104;-64
2021/09/30 11:42:16;;;;;;;;;;;;;;;19.13;36.53;102310.44;5095540;28;20455;-64
2021/09/30 11:45:07;;;;;;;7.68;1.70;;;;;;;19.20;36.56;102308.72;5099832;28;20368;-64
2021/09/30 11:47:34;;;;;;;7.93;1.63;;;;;;;18.88;37.59;102313.19;5090979;28;20531;-64
2021/09/30 11:50:03;;;;;;;10.65;1.67;;;;;;;18.42;38.40;102319.06;5092392;28;20877;-63
2021/09/30 11:52:30;;;;;;;16.75;1.90;;;;;;;17.80;39.57;102316.75;5086227;28;20053;-63
2021/09/30 11:55:10;;;;;;;8.55;1.85;;;;;;;17.09;41.04;102309.94;5096427;28;20086;-65
2021/09/30 11:57:37;;;;;;;9.30;2.10;;;;;;;17.13;41.68;102315.81;5109642;28;20064;-63
2021/09/30 12:00:08;;;;;;;11.05;2.10;;;;;;;16.79;42.72;102309.38;5088108;28;20048;-63
2021/09/30 12:03:05;;;;;;;13.85;1.88;;;;;;;16.37;42.94;102295.81;5122324;27;20404;-63
2021/09/30 12:05:36;;;;;;;12.27;2.33;;;;;;;16.45;43.50;102296.72;5107673;27;20048;-63
2021/09/30 12:08:06;;;;;;;10.85;1.92;;;;;;;16.43;43.67;102303.25;5115940;27;20044;-63
2021/09/30 12:10:36;;;;;;;15.77;2.03;;;;;;;16.33;43.46;102292.59;5123752;27;20042;-63
2021/09/30 12:13:20;;;;;;;11.30;2.25;;;;;;;16.37;42.90;102285.09;5122372;27;20509;-64
2021/09/30 12:15:49;;;;;;;17.58;2.40;;;;;;;16.18;44.95;102291.47;5123459;27;20086;-63
2021/09/30 12:18:18;;;;;;;14.80;1.85;;;;;;;16.07;43.79;102300.56;5115410;27;20039;-63
2021/09/30 12:20:48;;;;;;;10.68;2.00;;;;;;;15.93;44.36;102286.72;5129408;27;20138;-65
2021/09/30 12:23:16;;;;;;;15.88;2.13;;;;;;;16.01;45.16;102290.47;5125282;27;20410;-64
2021/09/30 12:25:43;;;;;;;12.52;1.92;;;;;;;15.89;44.11;102282.66;5124368;27;20121;-64
2021/09/30 12:28:10;;;;;;;9.00;1.92;;;;;;;15.82;45.22;102280.75;5119230;27;20059;-64
2021/09/30 12:30:39;;;;;;;14.55;2.08;;;;;;;15.90;44.73;102295.06;5116576;27;20051;-64
2021/09/30 12:33:06;;;;;;;10.27;1.85;;;;;;;15.66;44.49;102276.88;5116381;27;20035;-63
2021/09/30 12:35:36;;;;;;;13.77;2.42;;;;;;;15.63;45.31;102279.00;5122329;27;20492;-64
2021/09/30 12:38:12;;;;;;;11.23;1.83;;;;;;;15.44;46.93;102288.81;5125287;27;20055;-64
2021/09/30 12:40:44;;;;;;;12.65;1.80;;;;;;;15.41;47.05;102274.88;5127039;27;20047;-63
2021/09/30 12:43:16;;;;;;;12.63;2.13;;;;;;;15.41;46.87;102274.88;5125877;27;20173;-64
2021/09/30 12:46:01;;;;;;;18.33;2.40;;;;;;;15.51;48.59;102268.50;5143639;27;20122;-64
2021/09/30 12:48:31;;;;;;;10.95;2.22;;;;;;;15.48;48.40;102279.50;5120118;27;20126;-63
2021/09/30 12:51:04;;;;;;;14.90;2.47;;;;;;;15.61;48.25;102267.59;5129963;27;20120;-64
2021/09/30 12:53:56;;;;;;;10.25;2.13;;;;;;;15.85;46.27;102262.56;5129862;27;20065;-63
2021/09/30 12:56:29;;;;;;;11.93;2.00;;;;;;;15.79;47.05;102264.97;5122263;27;20039;-64
2021/09/30 12:59:08;;;;;;;11.80;1.90;;;;;;;15.80;48.02;102262.16;5129111;27;20082;-64
2021/09/30 13:01:35;;;;;;;12.25;1.95;;;;;;;15.84;46.94;102252.84;5124846;27;20059;-64
2021/09/30 13:04:22;;;;;;;15.77;2.35;;;;;;;16.04;47.74;102253.53;5117918;27;20048;-64
2021/09/30 13:09:37;;;;;;;10.68;2.10;;;;;;;16.54;45.54;102249.44;5133913;27;20397;-64
2021/09/30 13:12:13;;;;;;;13.90;2.00;;;;;;;16.14;44.96;102250.78;5134611;27;20051;-64
2021/09/30 13:14:45;;;;;;;13.73;2.13;;;;;;;16.05;46.18;102246.34;5125581;27;20039;-64
2021/09/30 13:17:16;;;;;;;10.82;1.80;;;;;;;15.89;46.12;102245.19;5127985;27;20138;-65
2021/09/30 13:19:46;;;;;;;;;;;;;;;15.71;47.58;102237.13;5121349;27;20460;-65
2021/09/30 13:22:22;;;;;;;10.48;2.00;;;;;;;15.67;46.90;102242.94;5125862;27;20004;-65
2021/09/30 13:24:52;;;;;;;11.65;2.08;;;;;;;15.76;47.18;102242.06;5113366;27;65298;-65
2021/09/30 13:27:22;;;;;;;12.98;2.03;;;;;;;15.65;46.98;102235.06;5082609;28;20041;-65
2021/09/30 13:29:50;;;;;;;12.13;2.30;;;;;;;15.70;48.14;102232.78;5075439;28;20040;-65
2021/09/30 13:32:18;;;;;;;13.77;1.88;;;;;;;15.58;47.48;102230.47;5072162;28;20519;-65
2021/09/30 13:34:45;;;;;;;15.55;2.15;;;;;;;15.60;47.53;102231.16;5065010;28;20509;-65
2021/09/30 13:37:12;;;;;;;8.90;1.80;;;;;;;15.50;48.96;102228.56;5077934;28;20053;-65
2021/09/30 13:39:39;;;;;;;15.50;2.10;;;;;;;15.42;48.90;102221.25;5083432;28;20043;-65
2021/09/30 13:42:07;;;;;;;28.52;9.82;;;;;;;15.49;48.07;102216.16;5074948;28;20106;-67
2021/09/30 13:44:34;;;;;;;15.52;3.60;;;;;;;15.45;48.61;102212.94;5080721;28;20127;-65
2021/09/30 13:47:01;;;;;;;9.10;2.33;;;;;;;15.25;49.99;102208.72;5084626;28;20040;-65
2021/09/30 13:49:27;;;;;;;14.10;2.35;;;;;;;15.13;50.55;102202.72;5081547;28;20521;-65
2021/09/30 13:51:54;;;;;;;15.18;2.00;;;;;;;15.19;49.72;102196.78;5081896;28;20436;-65
2021/09/30 13:54:21;;;;;;;16.90;2.25;;;;;;;15.04;51.01;102207.09;5084670;28;20078;-65
2021/09/30 13:56:48;;;;;;;13.35;2.30;;;;;;;14.92;51.48;102203.81;5076792;28;20455;-65
2021/09/30 13:59:14;;;;;;;8.95;2.05;;;;;;;14.96;50.06;102202.50;5082319;28;20040;-65
2021/09/30 14:01:57;;;;;;;14.07;2.47;;;;;;;14.88;51.57;102204.22;5075349;28;20040;-65
2021/09/30 14:04:24;;;;;;;9.70;2.08;;;;;;;14.89;51.01;102196.06;5084178;28;20385;-65
2021/09/30 14:06:55;;;;;;;13.20;2.58;;;;;;;15.00;51.16;102194.22;5083121;28;20059;-65
2021/09/30 14:09:23;;;;;;;15.98;2.80;;;;;;;14.90;51.36;102200.44;5071375;28;20079;-65
2021/09/30 14:11:49;;;;;;;14.45;2.40;;;;;;;14.85;51.72;102202.69;5083991;28;20036;-64
2021/09/30 14:14:16;;;;;;;8.55;2.10;;;;;;;14.74;51.50;102193.03;5084199;28;20059;-64
2021/09/30 14:16:44;;;;;;;16.10;2.08;;;;;;;14.88;50.74;102190.88;5084588;28;20123;-64
2021/09/30 14:19:11;;;;;;;11.43;2.50;;;;;;;14.74;51.54;102192.22;5082132;28;20043;-64
2021/09/30 14:21:38;;;;;;;14.02;2.30;;;;;;;14.64;52.09;102186.03;5070923;28;20048;-64
2021/09/30 14:24:05;;;;;;;11.60;2.65;;;;;;;14.67;52.94;102191.94;5068764;28;20045;-64
2021/09/30 14:26:32;;;;;;;11.60;2.03;;;;;;;14.61;53.05;102189.88;5068326;28;20072;-64
2021/09/30 14:28:59;;;;;;;15.23;2.53;;;;;;;14.54;51.87;102186.88;5072749;28;20485;-64
2021/09/30 14:31:26;;;;;;;17.75;3.13;;;;;;;14.50;52.78;102180.16;5071683;28;20048;-64
2021/09/30 14:33:52;;;;;;;13.88;2.70;;;;;;;14.57;53.27;102178.63;5068801;28;20037;-64
2021/09/30 14:36:19;;;;;;;10.48;2.50;;;;;;;14.43;52.52;102175.56;5071919;28;20101;-65
2021/09/30 14:38:46;;;;;;;15.65;3.00;;;;;;;14.53;53.64;102171.00;5065306;28;20041;-64
2021/09/30 14:41:13;;;;;;;16.67;2.40;;;;;;;14.60;51.87;102164.13;5071435;28;20044;-67
2021/09/30 14:43:40;;;;;;;10.80;2.30;;;;;;;14.59;52.53;102157.97;5072863;28;20060;-68